Time;durP1;ratioP1;P1;durP2;ratioP2;P2;SDS_P1;SDS_P2;PMS_P1;PMS_P2;Temp;Humidity;BMP_temperature;BMP_pressure;BME280_temperature;BME280_humidity;BME280_pressure;Samples;Min_cycle;Max_cycle;Signal;HPM_P1;HPM_P2
2022/08/13 00:01:40;;;;;;;5.65;2.80;;;22.70;69.10;;;;;;5046854;28;20047;-76
2022/08/13 00:04:08;;;;;;;6.07;2.80;;;22.60;69.30;;;;;;5046849;28;20115;-76
2022/08/13 00:09:04;;;;;;;4.00;2.60;;;22.60;69.30;;;;;;5062894;28;20028;-76
2022/08/13 00:14:22;;;;;;;5.90;2.83;;;22.60;69.70;;;;;;5064221;28;20017;-76
2022/08/13 00:16:49;;;;;;;6.40;2.60;;;22.60;69.70;;;;;;5062291;28;20025;-75
2022/08/13 00:19:15;;;;;;;6.13;2.80;;;22.60;69.90;;;;;;5046357;28;20218;-76
2022/08/13 00:21:40;;;;;;;7.25;3.00;;;22.60;70.00;;;;;;5042164;28;20160;-75
2022/08/13 00:24:06;;;;;;;5.40;3.03;;;22.60;70.40;;;;;;5063752;28;20032;-76
2022/08/13 00:26:33;;;;;;;5.18;2.80;;;22.50;70.00;;;;;;5028989;28;20025;-76
2022/08/13 00:29:00;;;;;;;4.45;2.78;;;22.50;69.90;;;;;;5062581;28;20107;-75
2022/08/13 00:31:26;;;;;;;4.75;3.20;;;22.50;70.40;;;;;;5063716;28;20021;-76
2022/08/13 00:33:54;;;;;;;6.40;3.10;;;22.50;70.50;;;;;;5046953;28;20029;-76
2022/08/13 00:36:21;;;;;;;7.47;3.30;;;22.50;70.80;;;;;;5028150;28;20108;-76
2022/08/13 00:38:48;;;;;;;5.90;3.10;;;22.40;71.20;;;;;;5046827;28;20028;-75
2022/08/13 00:41:37;;;;;;;7.47;2.92;;;22.40;71.30;;;;;;5045082;28;20033;-75
2022/08/13 00:44:00;;;;;;;8.90;2.95;;;22.40;71.40;;;;;;5063644;28;20040;-75
2022/08/13 00:46:26;;;;;;;4.50;2.67;;;22.30;71.00;;;;;;5045207;28;20021;-76
2022/08/13 00:48:53;;;;;;;7.10;3.28;;;22.30;70.80;;;;;;5045430;28;20107;-75
2022/08/13 00:51:23;;;;;;;5.10;3.20;;;22.30;71.10;;;;;;5060933;28;20103;-76
2022/08/13 00:53:49;;;;;;;3.78;3.03;;;22.30;70.90;;;;;;5063134;28;20039;-76
2022/08/13 00:56:17;;;;;;;4.72;3.10;;;22.30;71.10;;;;;;5062276;28;20044;-75
2022/08/13 00:58:43;;;;;;;4.95;3.15;;;22.30;70.90;;;;;;5044650;28;20035;-75
2022/08/13 01:01:11;;;;;;;7.05;2.55;;;22.30;70.70;;;;;;5062542;28;20082;-76
2022/08/13 01:03:38;;;;;;;3.80;3.03;;;22.20;71.20;;;;;;5046369;28;20027;-76
2022/08/13 01:06:06;;;;;;;5.85;3.13;;;22.20;70.80;;;;;;5028876;28;20034;-76
2022/08/13 01:08:34;;;;;;;6.15;2.67;;;22.20;70.70;;;;;;5060139;28;20063;-75
2022/08/13 01:11:05;;;;;;;4.07;2.92;;;22.20;71.10;;;;;;5061116;28;20428;-75
2022/08/13 01:13:33;;;;;;;4.38;2.83;;;22.20;71.40;;;;;;5043915;28;20045;-76
2022/08/13 01:16:14;;;;;;;4.85;2.70;;;22.20;71.10;;;;;;5044555;28;20064;-75
2022/08/13 01:19:09;;;;;;;6.90;3.10;;;22.20;71.50;;;;;;5026075;28;20131;-75
2022/08/13 01:21:42;;;;;;;3.65;2.95;;;22.20;71.90;;;;;;5061127;28;20033;-77
2022/08/13 01:24:10;;;;;;;3.75;2.78;;;22.10;72.30;;;;;;5043242;28;20035;-76
2022/08/13 01:26:36;;;;;;;5.25;2.65;;;22.10;72.40;;;;;;5043384;28;20417;-75
2022/08/13 01:29:05;;;;;;;5.68;3.13;;;22.10;72.70;;;;;;5062668;28;20477;-74
2022/08/13 01:31:32;;;;;;;3.38;2.85;;;22.00;72.90;;;;;;5060997;28;20400;-75
2022/08/13 01:33:59;;;;;;;5.65;3.38;;;22.00;72.80;;;;;;5060545;28;20450;-75
2022/08/13 01:36:27;;;;;;;4.32;2.75;;;22.00;72.60;;;;;;5041621;28;20082;-75
2022/08/13 01:38:52;;;;;;;5.03;3.15;;;21.90;72.50;;;;;;5060299;28;20210;-75
2022/08/13 01:41:21;;;;;;;6.97;3.08;;;21.90;72.50;;;;;;5043928;28;20025;-75
2022/08/13 01:43:47;;;;;;;5.90;2.78;;;21.90;72.40;;;;;;5059825;28;20033;-76
2022/08/13 01:46:12;;;;;;;6.35;3.20;;;21.90;72.80;;;;;;5042876;28;20158;-76
2022/08/13 01:51:28;;;;;;;5.00;3.28;;;21.80;73.40;;;;;;5042984;28;20389;-76
2022/08/13 01:53:59;;;;;;;5.45;2.88;;;21.80;73.60;;;;;;5042440;28;20469;-76
2022/08/13 01:56:26;;;;;;;3.67;2.97;;;21.70;73.60;;;;;;5042010;28;20101;-75
2022/08/13 01:58:56;;;;;;;4.88;2.75;;;21.70;74.00;;;;;;5059326;28;20060;-77
2022/08/13 02:01:25;;;;;;;4.30;2.72;;;21.70;74.00;;;;;;5042653;28;20020;-76
2022/08/13 02:04:01;;;;;;;4.57;2.95;;;21.70;74.10;;;;;;5059911;28;20025;-77
2022/08/13 02:06:30;;;;;;;4.40;2.70;;;21.70;74.10;;;;;;5060199;28;20116;-77
2022/08/13 02:09:00;;;;;;;5.70;2.78;;;21.60;74.40;;;;;;5040898;28;20540;-76
2022/08/13 02:11:32;;;;;;;4.13;2.80;;;21.60;74.40;;;;;;5058845;28;20021;-77
2022/08/13 02:14:03;;;;;;;6.07;3.13;;;21.60;74.20;;;;;;5043073;28;20040;-77
2022/08/13 02:16:34;;;;;;;7.05;2.95;;;21.50;74.20;;;;;;5059315;28;20035;-76
2022/08/13 02:19:00;;;;;;;4.03;2.85;;;21.60;74.20;;;;;;5058916;28;20032;-76
2022/08/13 02:21:31;;;;;;;5.93;2.72;;;21.50;74.30;;;;;;5043030;28;20431;-75
2022/08/13 02:23:58;;;;;;;4.97;2.63;;;21.50;74.60;;;;;;5040423;28;20112;-75
2022/08/13 02:26:27;;;;;;;3.72;2.83;;;21.50;75.00;;;;;;5058735;28;20558;-76
2022/08/13 02:28:54;;;;;;;6.18;2.60;;;21.40;75.50;;;;;;5041013;28;20316;-75
2022/08/13 02:31:21;;;;;;;4.90;2.63;;;21.40;75.70;;;;;;5042149;28;20025;-75
2022/08/13 02:33:47;;;;;;;3.80;2.80;;;21.40;75.80;;;;;;5026274;28;20029;-76
2022/08/13 02:36:14;;;;;;;6.20;2.88;;;21.40;76.20;;;;;;5059789;28;20025;-76
2022/08/13 02:38:43;;;;;;;4.90;2.50;;;21.40;76.20;;;;;;5025862;28;20029;-75
2022/08/13 02:43:55;;;;;;;5.03;3.60;;;21.30;76.10;;;;;;5058451;28;20112;-75
2022/08/13 02:46:22;;;;;;;4.32;2.60;;;21.30;76.40;;;;;;5040190;28;20047;-75
2022/08/13 02:48:49;;;;;;;5.70;3.10;;;21.30;76.50;;;;;;5040192;28;20052;-75
2022/08/13 02:51:15;;;;;;;5.30;2.65;;;21.30;76.50;;;;;;5059295;28;20038;-76
2022/08/13 02:53:42;;;;;;;6.05;2.80;;;21.30;76.60;;;;;;5040658;28;20401;-75
2022/08/13 02:56:08;;;;;;;6.43;2.78;;;21.20;77.00;;;;;;5039710;28;20029;-76
2022/08/13 02:58:38;;;;;;;4.95;2.97;;;21.20;77.00;;;;;;5023620;28;20071;-75
2022/08/13 03:01:04;;;;;;;5.53;2.80;;;21.20;77.80;;;;;;5040313;28;20074;-75
2022/08/13 03:03:31;;;;;;;4.13;2.88;;;21.20;77.70;;;;;;5058505;28;20380;-77
2022/08/13 03:05:58;;;;;;;3.90;2.67;;;21.10;77.90;;;;;;5058102;28;20021;-77
2022/08/13 03:08:46;;;;;;;4.68;3.03;;;21.10;78.10;;;;;;5040380;28;20472;-75
2022/08/13 03:11:12;;;;;;;4.00;2.72;;;21.10;78.20;;;;;;5040529;28;20032;-77
2022/08/13 03:13:40;;;;;;;3.38;2.33;;;21.00;78.20;;;;;;5040213;28;20477;-77
2022/08/13 03:16:08;;;;;;;7.22;2.85;;;21.00;78.40;;;;;;5042433;28;20024;-75
2022/08/13 03:18:33;;;;;;;5.70;2.70;;;21.00;78.70;;;;;;5047243;28;20392;-74
2022/08/13 03:20:59;;;;;;;4.90;2.47;;;21.00;78.70;;;;;;5043669;28;20108;-75
2022/08/13 03:23:27;;;;;;;5.28;2.80;;;21.00;78.90;;;;;;5062116;28;20025;-75
2022/08/13 03:25:53;;;;;;;7.18;3.08;;;21.00;79.20;;;;;;5043478;28;20053;-75
2022/08/13 03:28:19;;;;;;;4.15;2.83;;;21.00;79.10;;;;;;5024787;28;20048;-77
2022/08/13 03:30:46;;;;;;;3.75;2.47;;;20.90;79.20;;;;;;5040998;28;20396;-77
2022/08/13 03:33:13;;;;;;;6.68;2.58;;;20.90;79.40;;;;;;5060580;28;20047;-74
2022/08/13 03:35:40;;;;;;;3.45;2.85;;;20.90;79.40;;;;;;5042054;28;20071;-75
2022/08/13 03:38:08;;;;;;;3.05;2.47;;;20.90;79.80;;;;;;5042465;28;20025;-75
2022/08/13 03:43:19;;;;;;;10.20;3.45;;;20.90;79.90;;;;;;5039833;28;20037;-75
2022/08/13 03:45:45;;;;;;;4.25;2.70;;;20.80;80.00;;;;;;5044849;28;20047;-75
2022/08/13 03:48:13;;;;;;;6.78;3.05;;;20.80;80.20;;;;;;5042271;28;20029;-75
2022/08/13 03:50:40;;;;;;;5.65;3.05;;;20.80;80.30;;;;;;5060092;28;20017;-75
2022/08/13 03:53:07;;;;;;;8.75;2.85;;;20.70;80.60;;;;;;5041831;28;20450;-75
2022/08/13 03:55:33;;;;;;;6.05;2.70;;;20.70;80.70;;;;;;5040192;28;20063;-75
2022/08/13 03:58:00;;;;;;;4.20;3.00;;;20.70;80.70;;;;;;5040830;28;20021;-75
2022/08/13 04:00:28;;;;;;;6.57;3.00;;;20.70;80.90;;;;;;5058853;28;20111;-75
2022/08/13 04:03:00;;;;;;;5.93;3.13;;;20.70;81.20;;;;;;5042030;28;20043;-75
2022/08/13 04:05:27;;;;;;;5.93;2.83;;;20.60;81.40;;;;;;5042754;28;20029;-75
2022/08/13 04:07:53;;;;;;;5.65;3.30;;;20.60;81.60;;;;;;5058656;28;20063;-74
2022/08/13 04:10:19;;;;;;;3.80;3.10;;;20.70;81.90;;;;;;5059541;28;20025;-74
2022/08/13 04:12:46;;;;;;;3.78;2.63;;;20.60;82.30;;;;;;5041663;28;20028;-75
2022/08/13 04:15:12;;;;;;;3.35;2.70;;;20.60;82.60;;;;;;5040561;28;20037;-75
2022/08/13 04:17:38;;;;;;;5.63;2.88;;;20.60;82.70;;;;;;5041489;28;20036;-75
2022/08/13 04:20:06;;;;;;;4.50;2.92;;;20.60;82.60;;;;;;5040299;28;20256;-75
2022/08/13 04:22:33;;;;;;;5.38;2.90;;;20.60;82.70;;;;;;5058847;28;20029;-75
2022/08/13 04:24:59;;;;;;;4.72;2.83;;;20.60;82.60;;;;;;5059476;28;20268;-75
2022/08/13 04:27:25;;;;;;;7.30;3.10;;;20.60;83.00;;;;;;5062865;28;20040;-75
2022/08/13 04:29:55;;;;;;;3.88;2.67;;;20.60;83.50;;;;;;5044418;28;20013;-76
2022/08/13 04:32:23;;;;;;;5.05;2.90;;;20.50;83.50;;;;;;5045379;28;20020;-75
2022/08/13 04:34:49;;;;;;;5.90;3.00;;;20.50;83.80;;;;;;5044685;28;20025;-76
2022/08/13 04:37:14;;;;;;;5.97;3.03;;;20.50;83.80;;;;;;5060871;28;20028;-76
2022/08/13 04:39:40;;;;;;;5.10;3.50;;;20.60;84.10;;;;;;5061041;28;20119;-75
2022/08/13 04:42:07;;;;;;;6.97;3.33;;;20.60;84.40;;;;;;5043163;28;20036;-76
2022/08/13 04:44:34;;;;;;;4.82;2.80;;;20.60;84.20;;;;;;5061014;28;20059;-76
2022/08/13 04:46:59;;;;;;;5.72;2.70;;;20.60;84.40;;;;;;5043813;28;20354;-76
2022/08/13 04:49:25;;;;;;;10.40;3.25;;;20.60;84.40;;;;;;5044149;28;20029;-75
2022/08/13 04:51:52;;;;;;;4.35;2.85;;;20.60;84.80;;;;;;5044033;28;20103;-75
2022/08/13 04:54:19;;;;;;;4.90;3.00;;;20.60;84.80;;;;;;5044071;28;20480;-75
2022/08/13 04:56:45;;;;;;;5.78;2.83;;;20.60;84.70;;;;;;5027719;28;20033;-74
2022/08/13 04:59:12;;;;;;;4.63;2.53;;;20.60;85.00;;;;;;5043478;28;20067;-75
2022/08/13 05:01:38;;;;;;;7.28;3.08;;;20.70;85.40;;;;;;5061776;28;20050;-75
2022/08/13 05:04:05;;;;;;;7.20;2.90;;;20.70;85.50;;;;;;5061833;28;20098;-74
2022/08/13 05:06:30;;;;;;;8.10;2.90;;;20.70;85.40;;;;;;5062288;28;20044;-74
2022/08/13 05:08:58;;;;;;;5.38;2.78;;;20.70;85.40;;;;;;5062480;28;20060;-74
2022/08/13 05:11:27;;;;;;;5.70;2.70;;;20.70;85.50;;;;;;5063078;28;20388;-75
2022/08/13 05:13:53;;;;;;;4.35;2.75;;;20.80;85.70;;;;;;5065084;28;20029;-75
2022/08/13 05:16:19;;;;;;;4.95;3.10;;;20.80;85.30;;;;;;5063057;28;20481;-74
2022/08/13 05:18:52;;;;;;;6.47;2.90;;;20.80;85.40;;;;;;5044095;28;20084;-74
2022/08/13 05:21:22;;;;;;;4.78;2.90;;;20.80;86.10;;;;;;5045580;28;20113;-75
2022/08/13 05:23:53;;;;;;;4.68;3.17;;;20.90;86.60;;;;;;5043981;28;20029;-76
2022/08/13 05:26:24;;;;;;;5.43;2.70;;;20.90;86.40;;;;;;5029066;28;20020;-75
2022/08/13 05:28:50;;;;;;;3.88;2.92;;;20.90;86.40;;;;;;5062038;28;20047;-75
2022/08/13 05:31:19;;;;;;;3.63;2.65;;;20.90;86.40;;;;;;5045024;28;20052;-75
2022/08/13 05:33:45;;;;;;;7.53;3.17;;;21.00;86.90;;;;;;5042621;28;20304;-76
2022/08/13 05:36:13;;;;;;;4.72;2.80;;;21.00;87.20;;;;;;5062402;28;20035;-76
2022/08/13 05:38:40;;;;;;;7.93;3.15;;;21.00;87.30;;;;;;5035798;28;20494;-75
2022/08/13 05:41:10;;;;;;;3.63;2.70;;;21.00;87.50;;;;;;5044013;28;20484;-75
2022/08/13 05:43:38;;;;;;;6.60;3.17;;;21.10;87.60;;;;;;5062483;28;20064;-75
2022/08/13 05:46:08;;;;;;;5.13;3.20;;;21.10;87.70;;;;;;5044184;28;20039;-75
2022/08/13 05:48:39;;;;;;;4.72;2.72;;;21.10;87.90;;;;;;5062521;28;20021;-75
2022/08/13 05:51:08;;;;;;;4.97;2.70;;;21.10;87.80;;;;;;5043707;28;20025;-75
2022/08/13 05:53:38;;;;;;;7.38;3.25;;;21.10;88.20;;;;;;5061005;28;20029;-75
2022/08/13 05:56:07;;;;;;;3.95;2.80;;;21.20;88.00;;;;;;5061675;28;20021;-75
2022/08/13 05:58:34;;;;;;;3.45;2.75;;;21.20;87.80;;;;;;5064249;28;20032;-75
2022/08/13 06:03:44;;;;;;;6.22;3.17;;;21.30;88.10;;;;;;5062099;28;20039;-76
2022/08/13 06:06:14;;;;;;;6.05;2.90;;;21.30;88.30;;;;;;5026950;28;20025;-74
2022/08/13 06:08:42;;;;;;;5.68;2.60;;;21.30;88.40;;;;;;5025956;28;20079;-74
2022/08/13 06:11:11;;;;;;;5.15;2.60;;;21.50;89.00;;;;;;5041741;28;20436;-75
2022/08/13 06:13:38;;;;;;;11.00;3.53;;;21.60;88.60;;;;;;5025482;28;20082;-75
2022/08/13 06:16:09;;;;;;;5.13;2.95;;;21.60;88.20;;;;;;5041937;28;20028;-75
2022/08/13 06:18:37;;;;;;;4.40;2.65;;;21.60;87.80;;;;;;5041094;28;20086;-75
2022/08/13 06:21:06;;;;;;;6.28;2.65;;;21.60;87.10;;;;;;5060142;28;20059;-75
2022/08/13 06:23:35;;;;;;;5.07;3.00;;;21.60;86.20;;;;;;5060807;28;20033;-75
2022/08/13 06:26:02;;;;;;;3.92;2.72;;;21.70;85.80;;;;;;5060685;28;20021;-76
2022/08/13 06:28:30;;;;;;;7.40;3.58;;;21.80;85.40;;;;;;5061598;28;20028;-74
2022/08/13 06:31:01;;;;;;;5.80;2.63;;;21.80;85.60;;;;;;5024997;28;20445;-75
2022/08/13 06:33:34;;;;;;;5.00;2.42;;;21.80;85.20;;;;;;5059730;28;20036;-75
2022/08/13 06:36:06;;;;;;;5.45;2.78;;;21.90;85.10;;;;;;5025297;28;20028;-76
2022/08/13 06:38:40;;;;;;;3.47;2.40;;;21.90;85.00;;;;;;5059071;28;20060;-75
2022/08/13 06:41:07;;;;;;;5.40;2.70;;;22.00;83.60;;;;;;5025837;28;20032;-75
2022/08/13 06:43:42;;;;;;;3.40;2.33;;;22.00;83.50;;;;;;5059315;28;20159;-74
2022/08/13 06:46:12;;;;;;;3.78;2.28;;;22.10;83.20;;;;;;5060085;28;20036;-74
2022/08/13 06:48:42;;;;;;;31.35;9.05;;;22.20;83.00;;;;;;5059037;28;20020;-74
2022/08/13 06:51:11;;;;;;;29.10;10.10;;;22.20;85.20;;;;;;5041622;28;20024;-75
2022/08/13 06:53:39;;;;;;;18.95;6.68;;;22.30;85.50;;;;;;5059540;28;20025;-76
2022/08/13 06:56:19;;;;;;;11.52;5.10;;;22.40;85.20;;;;;;5041428;28;20107;-76
2022/08/13 06:58:49;;;;;;;7.47;3.65;;;22.50;84.80;;;;;;5041494;28;20496;-75
2022/08/13 07:01:23;;;;;;;4.50;3.28;;;22.50;84.30;;;;;;5040475;28;20037;-76
2022/08/13 07:03:51;;;;;;;6.60;3.08;;;22.60;84.00;;;;;;5059240;28;20094;-75
2022/08/13 07:06:20;;;;;;;6.05;2.67;;;22.60;83.60;;;;;;5043942;28;20173;-75
2022/08/13 07:08:46;;;;;;;4.95;2.72;;;22.70;83.50;;;;;;5045538;28;20021;-75
2022/08/13 07:11:22;;;;;;;6.88;3.25;;;22.70;83.20;;;;;;5041819;28;20095;-75
2022/08/13 07:13:52;;;;;;;4.57;2.80;;;22.80;83.20;;;;;;5040629;28;20013;-75
2022/08/13 07:16:21;;;;;;;5.90;2.97;;;22.80;82.90;;;;;;5058271;28;20029;-76
2022/08/13 07:18:49;;;;;;;5.90;3.55;;;22.90;83.00;;;;;;5025987;28;20028;-76
2022/08/13 07:21:20;;;;;;;3.53;2.60;;;22.90;82.60;;;;;;5059328;28;20020;-75
2022/08/13 07:23:48;;;;;;;6.30;2.75;;;23.00;82.00;;;;;;5042607;28;20052;-74
2022/08/13 07:26:16;;;;;;;5.38;2.50;;;23.10;81.60;;;;;;5039769;28;20021;-75
2022/08/13 07:28:44;;;;;;;4.60;2.60;;;23.10;81.40;;;;;;5039753;28;20029;-75
2022/08/13 07:31:11;;;;;;;4.28;2.25;;;23.10;81.10;;;;;;5057958;28;20021;-75
2022/08/13 07:33:43;;;;;;;4.75;2.22;;;23.20;80.60;;;;;;5042742;28;20036;-76
2022/08/13 07:36:13;;;;;;;3.92;2.28;;;23.30;80.20;;;;;;5044408;28;20472;-75
2022/08/13 07:38:41;;;;;;;3.58;2.30;;;23.30;79.70;;;;;;5040706;28;20027;-75
2022/08/13 07:41:10;;;;;;;2.90;2.50;;;23.40;79.50;;;;;;5057409;28;20467;-75
2022/08/13 07:43:39;;;;;;;4.45;2.45;;;23.50;79.10;;;;;;5039624;28;20053;-76
2022/08/13 07:46:10;;;;;;;4.43;2.55;;;23.50;78.80;;;;;;5040334;28;20021;-75
2022/08/13 07:48:38;;;;;;;4.88;2.85;;;23.60;78.80;;;;;;5040166;28;20481;-76
2022/08/13 07:51:06;;;;;;;2.53;1.95;;;23.70;78.70;;;;;;5040134;28;20032;-76
2022/08/13 07:53:35;;;;;;;3.80;2.40;;;23.70;78.50;;;;;;5040585;28;20041;-75
2022/08/13 07:56:05;;;;;;;4.25;2.20;;;23.80;78.30;;;;;;5058357;28;20032;-75
2022/08/13 07:58:36;;;;;;;5.38;2.42;;;23.90;78.10;;;;;;5057872;28;20033;-75
2022/08/13 08:01:02;;;;;;;;;;;24.00;78.00;;;;;;5042267;28;20033;-76
2022/08/13 08:03:32;;;;;;;4.50;2.78;;;24.00;77.60;;;;;;5061394;28;19916;-76
2022/08/13 08:05:59;;;;;;;6.00;2.85;;;24.10;77.70;;;;;;5063708;28;20498;-75
2022/08/13 08:08:35;;;;;;;3.00;2.45;;;24.20;77.10;;;;;;5061275;28;20090;-75
2022/08/13 08:11:06;;;;;;;4.85;2.60;;;24.30;76.80;;;;;;5044101;28;20070;-77
2022/08/13 08:13:34;;;;;;;5.47;2.50;;;24.40;76.30;;;;;;5062727;28;20115;-76
2022/08/13 08:16:02;;;;;;;7.85;2.80;;;24.60;76.40;;;;;;5044047;28;20028;-75
2022/08/13 08:18:28;;;;;;;7.45;2.40;;;24.60;75.50;;;;;;5043670;28;20036;-75
2022/08/13 08:21:08;;;;;;;5.18;2.20;;;24.70;74.70;;;;;;5062595;28;20032;-74
2022/08/13 08:23:35;;;;;;;2.92;2.17;;;24.70;74.60;;;;;;5056925;28;20025;-74
2022/08/13 08:26:07;;;;;;;3.65;2.30;;;24.80;74.30;;;;;;5026863;28;20343;-74
2022/08/13 08:28:34;;;;;;;3.85;2.28;;;24.80;74.20;;;;;;5043377;28;20055;-75
2022/08/13 08:31:04;;;;;;;4.50;2.28;;;24.90;74.10;;;;;;5061657;28;20091;-75
2022/08/13 08:33:29;;;;;;;5.00;2.33;;;25.00;73.90;;;;;;5043082;28;20409;-75
2022/08/13 08:35:55;;;;;;;2.50;2.20;;;25.00;73.30;;;;;;5042971;28;20021;-75
2022/08/13 08:43:57;;;;;;;7.25;2.35;;;25.20;71.10;;;;;;5044454;28;20025;-74
2022/08/13 08:46:24;;;;;;;5.43;2.42;;;25.30;71.20;;;;;;5042420;28;20017;-74
2022/08/13 08:48:54;;;;;;;3.75;2.60;;;25.30;71.40;;;;;;5061984;28;20453;-74
2022/08/13 08:51:20;;;;;;;2.92;2.10;;;25.40;71.00;;;;;;5024665;28;20056;-75
2022/08/13 08:53:47;;;;;;;4.75;2.22;;;25.50;71.10;;;;;;5043978;28;20029;-76
2022/08/13 08:56:16;;;;;;;4.78;2.05;;;25.60;70.80;;;;;;5059731;28;20028;-75
2022/08/13 08:58:42;;;;;;;5.13;2.20;;;25.60;69.90;;;;;;5046347;28;20044;-75
2022/08/13 09:01:10;;;;;;;4.05;2.28;;;25.70;69.20;;;;;;5046746;28;20445;-77
2022/08/13 09:03:42;;;;;;;4.25;2.20;;;25.80;68.90;;;;;;5019407;28;20036;-74
2022/08/13 09:06:11;;;;;;;4.22;2.08;;;25.80;68.30;;;;;;5060439;28;20103;-77
2022/08/13 09:08:38;;;;;;;4.22;2.15;;;25.90;68.20;;;;;;5044350;28;20127;-75
2022/08/13 09:11:04;;;;;;;7.70;2.17;;;26.00;68.30;;;;;;5045041;28;20078;-76
2022/08/13 09:13:31;;;;;;;7.18;2.10;;;26.00;65.70;;;;;;5028372;28;20469;-75
2022/08/13 09:15:57;;;;;;;3.28;2.03;;;26.10;66.70;;;;;;5042300;28;20488;-75
2022/08/13 09:18:23;;;;;;;4.78;2.33;;;26.10;66.90;;;;;;5060487;28;20078;-75
2022/08/13 09:20:50;;;;;;;3.25;1.95;;;26.20;66.60;;;;;;5047203;28;20488;-75
2022/08/13 09:23:17;;;;;;;2.80;2.05;;;26.30;66.00;;;;;;5042549;28;20128;-75
2022/08/13 09:25:50;;;;;;;5.07;2.25;;;26.40;66.00;;;;;;5060582;28;20021;-75
2022/08/13 09:28:22;;;;;;;3.88;1.70;;;26.50;66.30;;;;;;5061037;28;20112;-75
2022/08/13 09:30:48;;;;;;;2.97;1.90;;;26.50;65.10;;;;;;5043015;28;20100;-75
2022/08/13 09:33:14;;;;;;;2.00;1.67;;;26.50;64.40;;;;;;5043164;28;20532;-77
2022/08/13 09:35:41;;;;;;;4.40;2.08;;;26.50;64.60;;;;;;5042410;28;20047;-75
2022/08/13 09:38:07;;;;;;;4.05;1.58;;;26.70;64.50;;;;;;5042580;28;20057;-75
2022/08/13 09:40:45;;;;;;;3.35;1.63;;;26.60;62.50;;;;;;5061483;28;20443;-76
2022/08/13 09:43:21;;;;;;;9.07;2.17;;;26.70;63.30;;;;;;5025484;28;20032;-75
2022/08/13 09:45:48;;;;;;;3.10;1.70;;;26.80;62.90;;;;;;5060106;28;20104;-76
2022/08/13 09:48:15;;;;;;;2.35;2.00;;;26.80;62.30;;;;;;5051669;28;20013;-75
2022/08/13 09:50:41;;;;;;;3.25;2.03;;;26.80;62.60;;;;;;5043329;28;20024;-75
2022/08/13 09:53:07;;;;;;;2.58;1.92;;;26.90;62.90;;;;;;5026494;28;20501;-74
2022/08/13 09:55:37;;;;;;;4.40;1.95;;;27.00;61.90;;;;;;5060707;28;20074;-75
2022/08/13 09:58:04;;;;;;;2.20;1.75;;;27.00;61.90;;;;;;5043468;28;20033;-76
2022/08/13 10:00:33;;;;;;;3.15;1.92;;;27.00;62.20;;;;;;5044186;28;20025;-77
2022/08/13 10:03:01;;;;;;;5.50;2.15;;;27.20;61.20;;;;;;5063496;28;20154;-76
2022/08/13 10:05:32;;;;;;;3.75;1.80;;;27.20;60.80;;;;;;5027866;28;20016;-76
2022/08/13 10:07:59;;;;;;;4.22;1.90;;;27.30;60.70;;;;;;5061824;28;20033;-75
2022/08/13 10:10:25;;;;;;;4.25;2.10;;;27.30;60.20;;;;;;5043861;28;20473;-76
2022/08/13 10:12:52;;;;;;;2.42;2.08;;;27.30;59.60;;;;;;5043384;28;20135;-75
2022/08/13 10:15:21;;;;;;;2.97;1.63;;;27.30;60.00;;;;;;5028311;28;20170;-76
2022/08/13 10:18:02;;;;;;;3.25;2.13;;;27.30;59.30;;;;;;5029718;28;20530;-76
2022/08/13 10:20:29;;;;;;;;;;;27.30;59.50;;;;;;5062010;28;20037;-76
2022/08/13 10:22:57;;;;;;;5.85;1.92;;;27.30;60.00;;;;;;5042442;28;20284;-76
2022/08/13 10:25:25;;;;;;;2.40;2.13;;;27.30;60.00;;;;;;5062206;28;20021;-77
2022/08/13 10:28:11;;;;;;;2.45;1.88;;;27.30;60.90;;;;;;5062989;28;20013;-76
2022/08/13 10:30:37;;;;;;;2.35;1.98;;;27.40;60.40;;;;;;5003366;28;20125;-76
2022/08/13 10:33:03;;;;;;;3.25;2.20;;;27.50;60.60;;;;;;5000664;28;20132;-76
2022/08/13 10:35:29;;;;;;;2.63;2.33;;;27.50;60.00;;;;;;5000751;28;20177;-76
2022/08/13 10:37:57;;;;;;;6.10;2.42;;;27.60;60.00;;;;;;4981416;28;20110;-76
2022/08/13 10:40:26;;;;;;;6.60;2.75;;;27.60;60.30;;;;;;4997340;28;20045;-75
2022/08/13 10:42:53;;;;;;;6.10;2.75;;;27.60;59.90;;;;;;4982971;28;20093;-75
2022/08/13 10:45:20;;;;;;;4.50;2.33;;;27.60;60.30;;;;;;5000392;28;20085;-76
2022/08/13 10:47:51;;;;;;;3.63;2.80;;;27.50;59.20;;;;;;4999926;28;20532;-75
2022/08/13 10:50:19;;;;;;;3.20;2.50;;;27.40;58.90;;;;;;4991269;28;20480;-75
2022/08/13 10:52:45;;;;;;;3.22;2.40;;;27.50;59.60;;;;;;4997902;28;20392;-75
2022/08/13 10:55:13;;;;;;;3.47;2.53;;;27.50;59.70;;;;;;5005078;28;20124;-75
2022/08/13 10:57:41;;;;;;;2.40;2.20;;;27.60;60.00;;;;;;4974556;28;20029;-75
2022/08/13 11:00:10;;;;;;;2.88;2.15;;;27.70;60.30;;;;;;4991623;28;20030;-75
2022/08/13 11:02:37;;;;;;;5.85;2.33;;;27.90;60.00;;;;;;4998609;28;20434;-75
2022/08/13 11:05:07;;;;;;;5.25;2.65;;;28.00;59.40;;;;;;4982547;28;20030;-76
2022/08/13 11:07:38;;;;;;;2.97;2.33;;;28.00;59.70;;;;;;5033157;28;20043;-76
2022/08/13 11:10:06;;;;;;;2.97;2.33;;;28.00;59.90;;;;;;5025428;28;20091;-75
2022/08/13 11:12:33;;;;;;;3.25;2.47;;;28.00;59.50;;;;;;5060380;28;20043;-75
2022/08/13 11:15:00;;;;;;;4.65;2.50;;;28.10;59.60;;;;;;5042014;28;20021;-74
2022/08/13 11:17:26;;;;;;;2.75;2.53;;;28.30;60.10;;;;;;5060986;28;20111;-75
2022/08/13 11:19:52;;;;;;;3.95;2.92;;;28.30;59.50;;;;;;5043135;28;20069;-75
2022/08/13 11:22:20;;;;;;;5.00;2.85;;;28.50;59.60;;;;;;5026702;28;20017;-74
2022/08/13 11:24:46;;;;;;;3.05;2.60;;;28.80;59.70;;;;;;5040468;28;20508;-76
2022/08/13 11:27:12;;;;;;;4.38;3.00;;;29.00;59.10;;;;;;5041540;28;20029;-76
2022/08/13 11:29:38;;;;;;;5.22;2.85;;;29.30;57.50;;;;;;5027539;28;20035;-76
2022/08/13 11:32:05;;;;;;;5.82;2.80;;;29.40;57.20;;;;;;5042961;28;20025;-76
2022/08/13 11:34:30;;;;;;;3.30;2.63;;;29.50;56.90;;;;;;5042671;28;20036;-76
2022/08/13 11:36:56;;;;;;;3.67;2.80;;;30.00;57.30;;;;;;5044832;28;20025;-76
2022/08/13 11:39:23;;;;;;;4.85;2.70;;;30.70;55.70;;;;;;5062536;28;20107;-76
2022/08/13 11:41:49;;;;;;;4.88;3.08;;;31.20;55.30;;;;;;5044540;28;20404;-75
2022/08/13 11:44:16;;;;;;;3.47;2.78;;;32.10;54.40;;;;;;5044743;28;20039;-76
2022/08/13 11:46:42;;;;;;;4.28;3.00;;;33.30;52.30;;;;;;5042752;28;20047;-75
2022/08/13 11:49:07;;;;;;;5.45;2.70;;;33.40;50.90;;;;;;5044463;28;20457;-75
2022/08/13 11:51:33;;;;;;;3.75;2.72;;;33.30;50.40;;;;;;5062370;28;20108;-76
2022/08/13 11:53:59;;;;;;;3.80;2.97;;;33.50;50.80;;;;;;5043933;28;20029;-75
2022/08/13 11:56:24;;;;;;;6.53;2.92;;;34.10;50.60;;;;;;5045605;28;20023;-75
2022/08/13 11:58:54;;;;;;;6.55;3.38;;;34.50;49.20;;;;;;5043831;28;20083;-76
2022/08/13 12:01:25;;;;;;;4.28;2.90;;;34.60;50.00;;;;;;5042698;28;20025;-75
2022/08/13 12:03:53;;;;;;;4.18;3.42;;;35.10;49.30;;;;;;5062425;28;20025;-75
2022/08/13 12:06:19;;;;;;;4.50;3.67;;;35.50;48.70;;;;;;5062285;28;20021;-75
2022/08/13 12:08:45;;;;;;;5.25;3.65;;;35.40;48.30;;;;;;5027543;28;20107;-75
2022/08/13 12:11:11;;;;;;;4.07;3.65;;;35.00;48.00;;;;;;5062168;28;20017;-75
2022/08/13 12:13:36;;;;;;;6.25;3.80;;;35.20;48.40;;;;;;5027340;28;20039;-75
2022/08/13 12:16:02;;;;;;;4.68;3.70;;;35.00;48.40;;;;;;5061860;28;20028;-75
2022/08/13 12:18:28;;;;;;;4.47;3.92;;;35.20;47.70;;;;;;5062684;28;20029;-75
2022/08/13 12:20:54;;;;;;;6.80;4.55;;;35.00;48.20;;;;;;5044598;28;20158;-75
2022/08/13 12:23:19;;;;;;;6.70;4.07;;;34.80;48.00;;;;;;5060973;28;20054;-76
2022/08/13 12:25:45;;;;;;;6.82;4.15;;;35.20;49.40;;;;;;5061057;28;20032;-75
2022/08/13 12:28:26;;;;;;;5.13;4.50;;;35.80;48.20;;;;;;5028387;28;20017;-76
2022/08/13 12:30:55;;;;;;;7.43;4.93;;;36.20;47.70;;;;;;5027857;28;20021;-76
2022/08/13 12:33:21;;;;;;;9.30;4.50;;;36.10;47.10;;;;;;5026345;28;20039;-76
2022/08/13 12:35:47;;;;;;;6.90;4.40;;;36.00;46.40;;;;;;5042465;28;20029;-77
2022/08/13 12:38:14;;;;;;;4.78;4.25;;;36.10;46.00;;;;;;5060927;28;20031;-76
2022/08/13 12:40:42;;;;;;;4.60;4.20;;;36.20;46.00;;;;;;5059850;28;20028;-76
2022/08/13 12:43:08;;;;;;;7.38;4.65;;;35.80;45.50;;;;;;5059920;28;20021;-76
2022/08/13 12:45:35;;;;;;;6.35;3.97;;;34.90;46.40;;;;;;5042020;28;20044;-75
2022/08/13 12:48:06;;;;;;;4.55;4.15;;;33.80;48.30;;;;;;5043173;28;20155;-76
2022/08/13 12:50:33;;;;;;;4.53;4.10;;;33.00;49.10;;;;;;5060750;28;20037;-74
2022/08/13 12:52:59;;;;;;;6.78;4.78;;;32.60;50.20;;;;;;5042310;28;20384;-76
2022/08/13 12:55:25;;;;;;;4.20;3.90;;;32.00;50.80;;;;;;5044563;28;20024;-75
2022/08/13 12:57:51;;;;;;;4.43;4.03;;;31.70;51.80;;;;;;5060817;28;20025;-76
2022/08/13 13:00:16;;;;;;;6.55;4.18;;;31.50;52.50;;;;;;5060571;28;20025;-75
2022/08/13 13:02:42;;;;;;;6.50;4.40;;;31.30;52.80;;;;;;5060831;28;20048;-75
2022/08/13 13:05:08;;;;;;;6.20;4.28;;;31.00;52.40;;;;;;5060862;28;20031;-75
2022/08/13 13:07:34;;;;;;;7.75;4.47;;;31.00;52.80;;;;;;5027108;28;20025;-76
2022/08/13 13:10:00;;;;;;;6.78;4.05;;;31.00;53.30;;;;;;5060540;28;20036;-77
2022/08/13 13:12:26;;;;;;;5.15;4.65;;;30.90;53.00;;;;;;5026928;28;20027;-76
2022/08/13 13:14:52;;;;;;;5.13;3.88;;;30.90;53.80;;;;;;5043792;28;20025;-76